sensor_id;sensor_type;location;lat;lon;timestamp;P1;durP1;ratioP1;P2;durP2;ratioP2
77287;SDS011;66345;42.694;23.346;2023-07-08T00:00:25;15.93;;;10.63;;
77287;SDS011;66345;42.694;23.346;2023-07-08T00:02:50;18.43;;;11.00;;
77287;SDS011;66345;42.694;23.346;2023-07-08T00:05:17;19.42;;;10.10;;
77287;SDS011;66345;42.694;23.346;2023-07-08T00:07:45;17.08;;;11.13;;
77287;SDS011;66345;42.694;23.346;2023-07-08T00:10:15;16.15;;;11.48;;
77287;SDS011;66345;42.694;23.346;2023-07-08T00:12:41;17.38;;;11.57;;
77287;SDS011;66345;42.694;23.346;2023-07-08T00:15:08;17.30;;;11.75;;
77287;SDS011;66345;42.694;23.346;2023-07-08T00:17:34;15.07;;;11.43;;
77287;SDS011;66345;42.694;23.346;2023-07-08T00:20:00;15.40;;;11.17;;
77287;SDS011;66345;42.694;23.346;2023-07-08T00:22:25;16.70;;;11.43;;
77287;SDS011;66345;42.694;23.346;2023-07-08T00:24:51;16.67;;;11.48;;
77287;SDS011;66345;42.694;23.346;2023-07-08T00:27:16;14.97;;;11.53;;
77287;SDS011;66345;42.694;23.346;2023-07-08T00:29:42;16.10;;;12.05;;
77287;SDS011;66345;42.694;23.346;2023-07-08T00:32:12;19.73;;;11.73;;
77287;SDS011;66345;42.694;23.346;2023-07-08T00:34:39;15.90;;;11.30;;
77287;SDS011;66345;42.694;23.346;2023-07-08T00:37:05;19.65;;;12.50;;
77287;SDS011;66345;42.694;23.346;2023-07-08T00:39:33;16.80;;;11.52;;
77287;SDS011;66345;42.694;23.346;2023-07-08T00:42:00;15.80;;;11.55;;
77287;SDS011;66345;42.694;23.346;2023-07-08T00:44:34;17.65;;;12.38;;
77287;SDS011;66345;42.694;23.346;2023-07-08T00:47:07;20.50;;;11.98;;
77287;SDS011;66345;42.694;23.346;2023-07-08T00:52:16;16.67;;;11.38;;
77287;SDS011;66345;42.694;23.346;2023-07-08T00:54:50;16.13;;;11.10;;
77287;SDS011;66345;42.694;23.346;2023-07-08T00:57:25;21.17;;;11.75;;
77287;SDS011;66345;42.694;23.346;2023-07-08T01:00:04;14.90;;;11.30;;
77287;SDS011;66345;42.694;23.346;2023-07-08T01:02:50;15.25;;;10.98;;
77287;SDS011;66345;42.694;23.346;2023-07-08T01:05:20;14.65;;;11.80;;
77287;SDS011;66345;42.694;23.346;2023-07-08T01:07:50;15.43;;;10.77;;
77287;SDS011;66345;42.694;23.346;2023-07-08T01:10:20;15.95;;;10.77;;
77287;SDS011;66345;42.694;23.346;2023-07-08T01:12:53;15.98;;;11.20;;
77287;SDS011;66345;42.694;23.346;2023-07-08T01:15:23;14.32;;;10.25;;
77287;SDS011;66345;42.694;23.346;2023-07-08T01:17:51;15.50;;;10.73;;
77287;SDS011;66345;42.694;23.346;2023-07-08T01:20:18;12.95;;;9.90;;
77287;SDS011;66345;42.694;23.346;2023-07-08T01:22:44;12.98;;;10.30;;
77287;SDS011;66345;42.694;23.346;2023-07-08T01:25:10;13.90;;;10.27;;
77287;SDS011;66345;42.694;23.346;2023-07-08T01:27:39;16.48;;;10.38;;
77287;SDS011;66345;42.694;23.346;2023-07-08T01:30:08;15.50;;;9.90;;
77287;SDS011;66345;42.694;23.346;2023-07-08T01:32:48;13.77;;;9.57;;
77287;SDS011;66345;42.694;23.346;2023-07-08T01:35:16;16.48;;;10.07;;
77287;SDS011;66345;42.694;23.346;2023-07-08T01:37:44;14.23;;;10.68;;
77287;SDS011;66345;42.694;23.346;2023-07-08T01:40:26;16.17;;;10.20;;
77287;SDS011;66345;42.694;23.346;2023-07-08T01:42:57;14.07;;;9.70;;
77287;SDS011;66345;42.694;23.346;2023-07-08T01:45:24;13.33;;;9.77;;
77287;SDS011;66345;42.694;23.346;2023-07-08T01:48:07;13.93;;;9.88;;
77287;SDS011;66345;42.694;23.346;2023-07-08T01:50:36;12.98;;;9.80;;
77287;SDS011;66345;42.694;23.346;2023-07-08T01:53:12;14.07;;;10.63;;
77287;SDS011;66345;42.694;23.346;2023-07-08T01:55:41;14.30;;;10.23;;
77287;SDS011;66345;42.694;23.346;2023-07-08T01:58:06;15.00;;;9.57;;
77287;SDS011;66345;42.694;23.346;2023-07-08T02:00:31;21.33;;;10.13;;
77287;SDS011;66345;42.694;23.346;2023-07-08T02:02:57;13.27;;;9.90;;
77287;SDS011;66345;42.694;23.346;2023-07-08T02:05:23;13.03;;;9.83;;
77287;SDS011;66345;42.694;23.346;2023-07-08T02:07:48;17.05;;;9.95;;
77287;SDS011;66345;42.694;23.346;2023-07-08T02:10:14;15.93;;;9.60;;
77287;SDS011;66345;42.694;23.346;2023-07-08T02:12:39;14.13;;;10.10;;
77287;SDS011;66345;42.694;23.346;2023-07-08T02:15:05;16.70;;;9.73;;
77287;SDS011;66345;42.694;23.346;2023-07-08T02:17:31;14.93;;;10.38;;
77287;SDS011;66345;42.694;23.346;2023-07-08T02:19:57;14.63;;;9.53;;
77287;SDS011;66345;42.694;23.346;2023-07-08T02:22:22;12.48;;;8.98;;
77287;SDS011;66345;42.694;23.346;2023-07-08T02:24:48;14.70;;;9.23;;
77287;SDS011;66345;42.694;23.346;2023-07-08T02:27:14;12.77;;;9.50;;
77287;SDS011;66345;42.694;23.346;2023-07-08T02:29:39;13.73;;;9.27;;
77287;SDS011;66345;42.694;23.346;2023-07-08T02:32:05;15.02;;;10.43;;
77287;SDS011;66345;42.694;23.346;2023-07-08T02:34:31;12.48;;;8.90;;
77287;SDS011;66345;42.694;23.346;2023-07-08T02:36:57;17.05;;;9.52;;
77287;SDS011;66345;42.694;23.346;2023-07-08T02:39:22;12.67;;;8.93;;
77287;SDS011;66345;42.694;23.346;2023-07-08T02:41:48;11.82;;;8.88;;
77287;SDS011;66345;42.694;23.346;2023-07-08T02:44:14;12.40;;;9.20;;
77287;SDS011;66345;42.694;23.346;2023-07-08T02:46:39;13.18;;;8.98;;
77287;SDS011;66345;42.694;23.346;2023-07-08T02:49:05;13.17;;;9.17;;
77287;SDS011;66345;42.694;23.346;2023-07-08T02:51:31;14.03;;;9.27;;
77287;SDS011;66345;42.694;23.346;2023-07-08T02:53:56;12.93;;;8.80;;
77287;SDS011;66345;42.694;23.346;2023-07-08T02:56:22;12.30;;;8.93;;
77287;SDS011;66345;42.694;23.346;2023-07-08T02:58:48;15.40;;;8.90;;
77287;SDS011;66345;42.694;23.346;2023-07-08T03:01:13;11.43;;;8.50;;
77287;SDS011;66345;42.694;23.346;2023-07-08T03:03:43;13.20;;;9.35;;
77287;SDS011;66345;42.694;23.346;2023-07-08T03:06:10;15.18;;;10.10;;
77287;SDS011;66345;42.694;23.346;2023-07-08T03:08:35;13.60;;;9.88;;
77287;SDS011;66345;42.694;23.346;2023-07-08T03:11:02;13.27;;;9.40;;
77287;SDS011;66345;42.694;23.346;2023-07-08T03:13:28;13.82;;;9.52;;
77287;SDS011;66345;42.694;23.346;2023-07-08T03:15:55;12.07;;;9.07;;
77287;SDS011;66345;42.694;23.346;2023-07-08T03:18:21;13.38;;;9.27;;
77287;SDS011;66345;42.694;23.346;2023-07-08T03:20:48;15.85;;;10.18;;
77287;SDS011;66345;42.694;23.346;2023-07-08T03:23:14;16.57;;;9.97;;
77287;SDS011;66345;42.694;23.346;2023-07-08T03:25:39;15.10;;;9.43;;
77287;SDS011;66345;42.694;23.346;2023-07-08T03:28:06;14.87;;;9.77;;
77287;SDS011;66345;42.694;23.346;2023-07-08T03:30:39;12.38;;;9.18;;
77287;SDS011;66345;42.694;23.346;2023-07-08T03:33:04;13.57;;;8.75;;
77287;SDS011;66345;42.694;23.346;2023-07-08T03:35:30;14.13;;;8.53;;
77287;SDS011;66345;42.694;23.346;2023-07-08T03:37:56;12.98;;;8.52;;
77287;SDS011;66345;42.694;23.346;2023-07-08T03:40:21;14.90;;;8.40;;
77287;SDS011;66345;42.694;23.346;2023-07-08T03:42:47;10.67;;;7.93;;
77287;SDS011;66345;42.694;23.346;2023-07-08T03:45:12;14.02;;;9.15;;
77287;SDS011;66345;42.694;23.346;2023-07-08T03:47:38;11.40;;;8.70;;
77287;SDS011;66345;42.694;23.346;2023-07-08T03:50:03;11.63;;;8.63;;
77287;SDS011;66345;42.694;23.346;2023-07-08T03:52:29;12.07;;;7.38;;
77287;SDS011;66345;42.694;23.346;2023-07-08T03:54:55;10.20;;;7.90;;
77287;SDS011;66345;42.694;23.346;2023-07-08T03:57:21;12.27;;;8.00;;
77287;SDS011;66345;42.694;23.346;2023-07-08T03:59:46;12.50;;;8.30;;
77287;SDS011;66345;42.694;23.346;2023-07-08T04:02:12;13.27;;;8.07;;
77287;SDS011;66345;42.694;23.346;2023-07-08T04:04:37;14.23;;;7.70;;
77287;SDS011;66345;42.694;23.346;2023-07-08T04:07:04;11.90;;;7.80;;
77287;SDS011;66345;42.694;23.346;2023-07-08T04:09:30;10.90;;;7.47;;
77287;SDS011;66345;42.694;23.346;2023-07-08T04:11:55;14.00;;;7.40;;
77287;SDS011;66345;42.694;23.346;2023-07-08T04:14:21;10.13;;;6.80;;
77287;SDS011;66345;42.694;23.346;2023-07-08T04:19:19;11.63;;;7.28;;
77287;SDS011;66345;42.694;23.346;2023-07-08T04:21:45;10.95;;;7.05;;
77287;SDS011;66345;42.694;23.346;2023-07-08T04:24:11;11.47;;;6.63;;
77287;SDS011;66345;42.694;23.346;2023-07-08T04:26:39;10.68;;;6.68;;
77287;SDS011;66345;42.694;23.346;2023-07-08T04:29:12;9.82;;;6.45;;
77287;SDS011;66345;42.694;23.346;2023-07-08T04:31:38;10.70;;;6.63;;
77287;SDS011;66345;42.694;23.346;2023-07-08T04:34:03;14.70;;;6.90;;
77287;SDS011;66345;42.694;23.346;2023-07-08T04:36:29;13.07;;;6.57;;
77287;SDS011;66345;42.694;23.346;2023-07-08T04:38:54;9.35;;;6.63;;
77287;SDS011;66345;42.694;23.346;2023-07-08T04:41:22;11.80;;;6.80;;
77287;SDS011;66345;42.694;23.346;2023-07-08T04:43:48;10.32;;;7.28;;
77287;SDS011;66345;42.694;23.346;2023-07-08T04:46:25;10.18;;;6.78;;
77287;SDS011;66345;42.694;23.346;2023-07-08T04:49:00;11.30;;;6.90;;
77287;SDS011;66345;42.694;23.346;2023-07-08T04:51:29;9.23;;;6.65;;
77287;SDS011;66345;42.694;23.346;2023-07-08T04:53:55;10.80;;;6.60;;
77287;SDS011;66345;42.694;23.346;2023-07-08T04:56:20;10.60;;;7.10;;
77287;SDS011;66345;42.694;23.346;2023-07-08T04:58:47;10.55;;;6.80;;
77287;SDS011;66345;42.694;23.346;2023-07-08T05:01:12;13.63;;;7.33;;
77287;SDS011;66345;42.694;23.346;2023-07-08T05:03:38;12.07;;;7.00;;
77287;SDS011;66345;42.694;23.346;2023-07-08T05:06:03;8.90;;;6.33;;
77287;SDS011;66345;42.694;23.346;2023-07-08T05:08:28;10.53;;;7.07;;
77287;SDS011;66345;42.694;23.346;2023-07-08T05:10:55;9.32;;;6.40;;
77287;SDS011;66345;42.694;23.346;2023-07-08T05:13:20;9.03;;;5.73;;
77287;SDS011;66345;42.694;23.346;2023-07-08T05:15:47;8.63;;;6.00;;
77287;SDS011;66345;42.694;23.346;2023-07-08T05:18:13;9.30;;;6.25;;
77287;SDS011;66345;42.694;23.346;2023-07-08T05:20:39;9.23;;;6.13;;
77287;SDS011;66345;42.694;23.346;2023-07-08T05:23:04;8.93;;;6.30;;
77287;SDS011;66345;42.694;23.346;2023-07-08T05:25:31;8.90;;;6.20;;
77287;SDS011;66345;42.694;23.346;2023-07-08T05:27:57;9.80;;;6.00;;
77287;SDS011;66345;42.694;23.346;2023-07-08T05:30:23;9.50;;;5.80;;
77287;SDS011;66345;42.694;23.346;2023-07-08T05:32:48;7.67;;;5.70;;
77287;SDS011;66345;42.694;23.346;2023-07-08T05:35:14;10.13;;;6.28;;
77287;SDS011;66345;42.694;23.346;2023-07-08T05:37:40;9.20;;;5.67;;
77287;SDS011;66345;42.694;23.346;2023-07-08T05:40:06;8.13;;;5.30;;
77287;SDS011;66345;42.694;23.346;2023-07-08T05:42:33;7.05;;;5.40;;
77287;SDS011;66345;42.694;23.346;2023-07-08T05:44:58;8.53;;;5.93;;
77287;SDS011;66345;42.694;23.346;2023-07-08T05:47:24;7.97;;;5.90;;
77287;SDS011;66345;42.694;23.346;2023-07-08T05:49:49;7.60;;;5.63;;
77287;SDS011;66345;42.694;23.346;2023-07-08T05:52:15;8.77;;;5.80;;
77287;SDS011;66345;42.694;23.346;2023-07-08T05:54:41;8.10;;;5.70;;
77287;SDS011;66345;42.694;23.346;2023-07-08T05:57:07;8.27;;;5.97;;
77287;SDS011;66345;42.694;23.346;2023-07-08T05:59:34;10.82;;;5.78;;
77287;SDS011;66345;42.694;23.346;2023-07-08T06:02:00;8.75;;;6.07;;
77287;SDS011;66345;42.694;23.346;2023-07-08T06:04:27;10.88;;;6.40;;
77287;SDS011;66345;42.694;23.346;2023-07-08T06:06:52;9.37;;;6.10;;
77287;SDS011;66345;42.694;23.346;2023-07-08T06:09:18;7.97;;;6.13;;
77287;SDS011;66345;42.694;23.346;2023-07-08T06:11:43;11.47;;;6.30;;
77287;SDS011;66345;42.694;23.346;2023-07-08T06:14:09;9.97;;;6.20;;
77287;SDS011;66345;42.694;23.346;2023-07-08T06:16:34;9.32;;;6.18;;
77287;SDS011;66345;42.694;23.346;2023-07-08T06:19:00;10.10;;;6.10;;
77287;SDS011;66345;42.694;23.346;2023-07-08T06:21:25;10.23;;;6.20;;
77287;SDS011;66345;42.694;23.346;2023-07-08T06:23:51;9.43;;;6.53;;
77287;SDS011;66345;42.694;23.346;2023-07-08T06:26:16;10.43;;;6.07;;
77287;SDS011;66345;42.694;23.346;2023-07-08T06:28:42;9.37;;;6.53;;
77287;SDS011;66345;42.694;23.346;2023-07-08T06:31:07;8.97;;;6.60;;
77287;SDS011;66345;42.694;23.346;2023-07-08T06:33:33;10.70;;;6.15;;
77287;SDS011;66345;42.694;23.346;2023-07-08T06:35:58;9.20;;;5.77;;
77287;SDS011;66345;42.694;23.346;2023-07-08T06:38:24;8.37;;;5.33;;
77287;SDS011;66345;42.694;23.346;2023-07-08T06:40:49;8.83;;;5.60;;
77287;SDS011;66345;42.694;23.346;2023-07-08T06:43:14;11.68;;;5.15;;
77287;SDS011;66345;42.694;23.346;2023-07-08T06:45:40;9.53;;;5.07;;
77287;SDS011;66345;42.694;23.346;2023-07-08T06:48:06;8.60;;;5.18;;
77287;SDS011;66345;42.694;23.346;2023-07-08T06:50:32;8.87;;;5.50;;
77287;SDS011;66345;42.694;23.346;2023-07-08T06:52:57;7.15;;;5.10;;
77287;SDS011;66345;42.694;23.346;2023-07-08T06:55:23;7.67;;;5.23;;
77287;SDS011;66345;42.694;23.346;2023-07-08T06:57:48;8.93;;;5.50;;
77287;SDS011;66345;42.694;23.346;2023-07-08T07:00:14;9.17;;;5.00;;
77287;SDS011;66345;42.694;23.346;2023-07-08T07:02:39;7.43;;;5.25;;
77287;SDS011;66345;42.694;23.346;2023-07-08T07:05:05;10.17;;;5.17;;
77287;SDS011;66345;42.694;23.346;2023-07-08T07:07:31;7.57;;;5.30;;
77287;SDS011;66345;42.694;23.346;2023-07-08T07:09:56;9.47;;;5.07;;
77287;SDS011;66345;42.694;23.346;2023-07-08T07:12:23;9.53;;;5.00;;
77287;SDS011;66345;42.694;23.346;2023-07-08T07:14:49;7.65;;;5.40;;
77287;SDS011;66345;42.694;23.346;2023-07-08T07:17:17;7.38;;;5.28;;
77287;SDS011;66345;42.694;23.346;2023-07-08T07:19:44;12.75;;;5.55;;
77287;SDS011;66345;42.694;23.346;2023-07-08T07:22:09;8.97;;;5.27;;
77287;SDS011;66345;42.694;23.346;2023-07-08T07:24:35;9.53;;;5.60;;
77287;SDS011;66345;42.694;23.346;2023-07-08T07:27:00;8.57;;;5.53;;
77287;SDS011;66345;42.694;23.346;2023-07-08T07:29:26;8.53;;;5.77;;
77287;SDS011;66345;42.694;23.346;2023-07-08T07:31:51;7.90;;;5.50;;
77287;SDS011;66345;42.694;23.346;2023-07-08T07:34:17;8.90;;;5.50;;
77287;SDS011;66345;42.694;23.346;2023-07-08T07:36:42;9.88;;;5.72;;
77287;SDS011;66345;42.694;23.346;2023-07-08T07:39:08;8.87;;;5.80;;
77287;SDS011;66345;42.694;23.346;2023-07-08T07:41:33;9.13;;;6.30;;
77287;SDS011;66345;42.694;23.346;2023-07-08T07:43:59;9.50;;;5.60;;
77287;SDS011;66345;42.694;23.346;2023-07-08T07:46:24;8.57;;;5.07;;
77287;SDS011;66345;42.694;23.346;2023-07-08T07:48:49;7.20;;;5.10;;
77287;SDS011;66345;42.694;23.346;2023-07-08T07:51:15;7.50;;;5.00;;
77287;SDS011;66345;42.694;23.346;2023-07-08T07:53:41;11.13;;;6.05;;
77287;SDS011;66345;42.694;23.346;2023-07-08T07:56:07;8.33;;;5.37;;
77287;SDS011;66345;42.694;23.346;2023-07-08T07:58:32;10.20;;;5.50;;
77287;SDS011;66345;42.694;23.346;2023-07-08T08:00:58;8.57;;;5.23;;
77287;SDS011;66345;42.694;23.346;2023-07-08T08:03:23;10.15;;;5.63;;
77287;SDS011;66345;42.694;23.346;2023-07-08T08:05:49;10.67;;;5.20;;
77287;SDS011;66345;42.694;23.346;2023-07-08T08:08:15;7.78;;;4.65;;
77287;SDS011;66345;42.694;23.346;2023-07-08T08:10:43;8.47;;;5.60;;
77287;SDS011;66345;42.694;23.346;2023-07-08T08:13:09;8.68;;;5.65;;
77287;SDS011;66345;42.694;23.346;2023-07-08T08:15:35;7.85;;;5.60;;
77287;SDS011;66345;42.694;23.346;2023-07-08T08:18:00;9.33;;;5.83;;
77287;SDS011;66345;42.694;23.346;2023-07-08T08:20:26;7.13;;;5.25;;
77287;SDS011;66345;42.694;23.346;2023-07-08T08:22:52;7.80;;;5.55;;
77287;SDS011;66345;42.694;23.346;2023-07-08T08:25:18;7.77;;;5.30;;
77287;SDS011;66345;42.694;23.346;2023-07-08T08:27:45;6.95;;;5.28;;
77287;SDS011;66345;42.694;23.346;2023-07-08T08:30:11;7.00;;;5.40;;
77287;SDS011;66345;42.694;23.346;2023-07-08T08:32:37;8.50;;;5.70;;
77287;SDS011;66345;42.694;23.346;2023-07-08T08:35:03;10.67;;;6.03;;
77287;SDS011;66345;42.694;23.346;2023-07-08T08:37:29;7.45;;;5.50;;
77287;SDS011;66345;42.694;23.346;2023-07-08T08:39:55;9.90;;;5.67;;
77287;SDS011;66345;42.694;23.346;2023-07-08T08:42:34;7.47;;;5.60;;
77287;SDS011;66345;42.694;23.346;2023-07-08T08:45:05;8.60;;;6.45;;
77287;SDS011;66345;42.694;23.346;2023-07-08T08:47:40;7.93;;;5.72;;
77287;SDS011;66345;42.694;23.346;2023-07-08T08:52:39;7.33;;;5.47;;
77287;SDS011;66345;42.694;23.346;2023-07-08T08:55:13;6.60;;;5.50;;
77287;SDS011;66345;42.694;23.346;2023-07-08T08:58:15;9.15;;;5.90;;
77287;SDS011;66345;42.694;23.346;2023-07-08T09:00:37;8.70;;;5.38;;
77287;SDS011;66345;42.694;23.346;2023-07-08T09:03:14;7.15;;;5.93;;
77287;SDS011;66345;42.694;23.346;2023-07-08T09:05:45;6.70;;;5.80;;
77287;SDS011;66345;42.694;23.346;2023-07-08T09:08:30;8.60;;;6.25;;
77287;SDS011;66345;42.694;23.346;2023-07-08T09:10:58;7.15;;;5.72;;
77287;SDS011;66345;42.694;23.346;2023-07-08T09:13:31;7.88;;;5.70;;
77287;SDS011;66345;42.694;23.346;2023-07-08T09:24:38;6.45;;;5.55;;
77287;SDS011;66345;42.694;23.346;2023-07-08T09:27:08;7.38;;;5.28;;
77287;SDS011;66345;42.694;23.346;2023-07-08T09:29:34;8.60;;;5.30;;
77287;SDS011;66345;42.694;23.346;2023-07-08T09:32:01;7.47;;;5.23;;
77287;SDS011;66345;42.694;23.346;2023-07-08T09:34:55;6.35;;;4.90;;
77287;SDS011;66345;42.694;23.346;2023-07-08T09:37:46;7.13;;;5.15;;
77287;SDS011;66345;42.694;23.346;2023-07-08T09:40:23;8.45;;;5.22;;
77287;SDS011;66345;42.694;23.346;2023-07-08T09:42:58;6.68;;;5.45;;
77287;SDS011;66345;42.694;23.346;2023-07-08T09:45:48;7.73;;;5.93;;
77287;SDS011;66345;42.694;23.346;2023-07-08T09:50:47;10.07;;;6.03;;
77287;SDS011;66345;42.694;23.346;2023-07-08T09:53:13;6.95;;;5.38;;
77287;SDS011;66345;42.694;23.346;2023-07-08T09:55:39;7.20;;;4.93;;
77287;SDS011;66345;42.694;23.346;2023-07-08T09:58:05;6.57;;;5.32;;
77287;SDS011;66345;42.694;23.346;2023-07-08T10:00:39;6.93;;;4.85;;
77287;SDS011;66345;42.694;23.346;2023-07-08T10:03:15;6.82;;;5.22;;
77287;SDS011;66345;42.694;23.346;2023-07-08T10:05:46;7.73;;;4.90;;
77287;SDS011;66345;42.694;23.346;2023-07-08T10:10:42;6.07;;;4.80;;
77287;SDS011;66345;42.694;23.346;2023-07-08T10:15:55;10.07;;;5.00;;
77287;SDS011;66345;42.694;23.346;2023-07-08T10:18:39;7.40;;;4.75;;
77287;SDS011;66345;42.694;23.346;2023-07-08T10:21:12;7.05;;;4.85;;
77287;SDS011;66345;42.694;23.346;2023-07-08T10:27:10;7.05;;;5.22;;
77287;SDS011;66345;42.694;23.346;2023-07-08T10:29:53;6.55;;;4.65;;
77287;SDS011;66345;42.694;23.346;2023-07-08T10:32:31;10.82;;;4.82;;
77287;SDS011;66345;42.694;23.346;2023-07-08T10:35:18;6.35;;;4.90;;
77287;SDS011;66345;42.694;23.346;2023-07-08T10:40:47;7.65;;;4.28;;
77287;SDS011;66345;42.694;23.346;2023-07-08T10:49:05;5.50;;;4.20;;
77287;SDS011;66345;42.694;23.346;2023-07-08T10:51:53;6.10;;;4.27;;
77287;SDS011;66345;42.694;23.346;2023-07-08T11:16:47;5.88;;;3.80;;
77287;SDS011;66345;42.694;23.346;2023-07-08T11:19:32;5.53;;;3.90;;
77287;SDS011;66345;42.694;23.346;2023-07-08T11:22:03;5.83;;;3.73;;
77287;SDS011;66345;42.694;23.346;2023-07-08T11:27:13;6.18;;;4.38;;
77287;SDS011;66345;42.694;23.346;2023-07-08T11:29:57;5.65;;;3.97;;
77287;SDS011;66345;42.694;23.346;2023-07-08T11:32:28;6.75;;;4.38;;
77287;SDS011;66345;42.694;23.346;2023-07-08T11:34:56;6.07;;;4.03;;
77287;SDS011;66345;42.694;23.346;2023-07-08T11:37:24;5.93;;;3.97;;
77287;SDS011;66345;42.694;23.346;2023-07-08T11:42:49;5.95;;;4.38;;
77287;SDS011;66345;42.694;23.346;2023-07-08T11:47:45;7.43;;;4.33;;
77287;SDS011;66345;42.694;23.346;2023-07-08T11:50:25;7.38;;;4.20;;
77287;SDS011;66345;42.694;23.346;2023-07-08T11:53:00;6.37;;;3.80;;
77287;SDS011;66345;42.694;23.346;2023-07-08T11:55:34;8.90;;;4.28;;
77287;SDS011;66345;42.694;23.346;2023-07-08T11:58:00;6.65;;;3.97;;
77287;SDS011;66345;42.694;23.346;2023-07-08T12:00:29;6.80;;;3.50;;
77287;SDS011;66345;42.694;23.346;2023-07-08T12:03:03;7.05;;;3.80;;
77287;SDS011;66345;42.694;23.346;2023-07-08T12:05:43;5.32;;;3.40;;
77287;SDS011;66345;42.694;23.346;2023-07-08T12:08:13;5.53;;;3.55;;
77287;SDS011;66345;42.694;23.346;2023-07-08T12:10:47;7.15;;;3.92;;
77287;SDS011;66345;42.694;23.346;2023-07-08T12:13:18;5.60;;;3.57;;
77287;SDS011;66345;42.694;23.346;2023-07-08T12:15:47;6.85;;;3.83;;
77287;SDS011;66345;42.694;23.346;2023-07-08T12:20:57;5.00;;;3.30;;
77287;SDS011;66345;42.694;23.346;2023-07-08T12:23:26;7.80;;;3.63;;
77287;SDS011;66345;42.694;23.346;2023-07-08T12:25:53;5.63;;;3.20;;
77287;SDS011;66345;42.694;23.346;2023-07-08T12:28:20;7.65;;;3.60;;
77287;SDS011;66345;42.694;23.346;2023-07-08T12:30:47;5.73;;;3.33;;
77287;SDS011;66345;42.694;23.346;2023-07-08T12:33:18;8.35;;;3.50;;
77287;SDS011;66345;42.694;23.346;2023-07-08T12:35:49;5.38;;;3.03;;
77287;SDS011;66345;42.694;23.346;2023-07-08T12:38:35;5.13;;;3.50;;
77287;SDS011;66345;42.694;23.346;2023-07-08T12:41:12;5.53;;;3.20;;
77287;SDS011;66345;42.694;23.346;2023-07-08T12:43:43;6.57;;;3.63;;
77287;SDS011;66345;42.694;23.346;2023-07-08T12:46:10;7.60;;;3.88;;
77287;SDS011;66345;42.694;23.346;2023-07-08T12:48:37;7.15;;;3.30;;
77287;SDS011;66345;42.694;23.346;2023-07-08T12:51:04;5.85;;;3.20;;
77287;SDS011;66345;42.694;23.346;2023-07-08T12:53:32;5.68;;;3.05;;
77287;SDS011;66345;42.694;23.346;2023-07-08T12:55:59;6.57;;;3.07;;
77287;SDS011;66345;42.694;23.346;2023-07-08T12:58:26;6.95;;;3.08;;
77287;SDS011;66345;42.694;23.346;2023-07-08T13:00:55;8.05;;;3.20;;
77287;SDS011;66345;42.694;23.346;2023-07-08T13:03:26;6.25;;;2.97;;
77287;SDS011;66345;42.694;23.346;2023-07-08T13:05:54;4.82;;;2.70;;
77287;SDS011;66345;42.694;23.346;2023-07-08T13:08:23;6.33;;;3.10;;
77287;SDS011;66345;42.694;23.346;2023-07-08T13:10:54;4.97;;;3.10;;
77287;SDS011;66345;42.694;23.346;2023-07-08T13:13:23;6.43;;;3.20;;
77287;SDS011;66345;42.694;23.346;2023-07-08T13:15:51;5.03;;;2.50;;
77287;SDS011;66345;42.694;23.346;2023-07-08T13:18:18;6.72;;;3.10;;
77287;SDS011;66345;42.694;23.346;2023-07-08T13:20:58;5.73;;;2.73;;
77287;SDS011;66345;42.694;23.346;2023-07-08T13:23:24;7.43;;;3.10;;
77287;SDS011;66345;42.694;23.346;2023-07-08T13:25:52;6.15;;;3.00;;
77287;SDS011;66345;42.694;23.346;2023-07-08T13:31:19;5.18;;;3.08;;
77287;SDS011;66345;42.694;23.346;2023-07-08T13:33:49;5.33;;;2.57;;
77287;SDS011;66345;42.694;23.346;2023-07-08T13:36:16;9.18;;;3.10;;
77287;SDS011;66345;42.694;23.346;2023-07-08T13:38:43;6.30;;;3.40;;
77287;SDS011;66345;42.694;23.346;2023-07-08T13:41:09;5.93;;;3.10;;
77287;SDS011;66345;42.694;23.346;2023-07-08T13:43:38;5.70;;;2.75;;
77287;SDS011;66345;42.694;23.346;2023-07-08T13:46:06;8.37;;;3.13;;
77287;SDS011;66345;42.694;23.346;2023-07-08T13:48:42;5.60;;;2.75;;
77287;SDS011;66345;42.694;23.346;2023-07-08T13:53:51;5.45;;;2.85;;
77287;SDS011;66345;42.694;23.346;2023-07-08T13:56:24;7.90;;;3.33;;
77287;SDS011;66345;42.694;23.346;2023-07-08T13:58:53;5.67;;;3.10;;
77287;SDS011;66345;42.694;23.346;2023-07-08T14:01:27;5.78;;;2.30;;
77287;SDS011;66345;42.694;23.346;2023-07-08T14:03:54;4.90;;;2.60;;
77287;SDS011;66345;42.694;23.346;2023-07-08T14:06:21;6.07;;;2.70;;
77287;SDS011;66345;42.694;23.346;2023-07-08T14:08:54;5.85;;;2.85;;
77287;SDS011;66345;42.694;23.346;2023-07-08T14:11:21;5.77;;;2.67;;
77287;SDS011;66345;42.694;23.346;2023-07-08T14:13:47;5.38;;;2.78;;
77287;SDS011;66345;42.694;23.346;2023-07-08T14:16:25;5.07;;;2.77;;
77287;SDS011;66345;42.694;23.346;2023-07-08T14:18:57;5.68;;;2.83;;
77287;SDS011;66345;42.694;23.346;2023-07-08T14:21:25;5.00;;;2.70;;
77287;SDS011;66345;42.694;23.346;2023-07-08T14:23:50;5.80;;;2.80;;
77287;SDS011;66345;42.694;23.346;2023-07-08T14:26:16;5.97;;;2.83;;
77287;SDS011;66345;42.694;23.346;2023-07-08T14:28:41;5.40;;;2.70;;
77287;SDS011;66345;42.694;23.346;2023-07-08T14:31:10;7.13;;;3.17;;
77287;SDS011;66345;42.694;23.346;2023-07-08T14:33:37;6.13;;;2.60;;
77287;SDS011;66345;42.694;23.346;2023-07-08T14:36:07;4.50;;;2.50;;
77287;SDS011;66345;42.694;23.346;2023-07-08T14:38:35;5.22;;;2.92;;
77287;SDS011;66345;42.694;23.346;2023-07-08T14:41:01;6.38;;;2.83;;
77287;SDS011;66345;42.694;23.346;2023-07-08T14:43:27;6.33;;;2.97;;
77287;SDS011;66345;42.694;23.346;2023-07-08T14:45:55;6.90;;;2.72;;
77287;SDS011;66345;42.694;23.346;2023-07-08T14:48:23;5.60;;;2.90;;
77287;SDS011;66345;42.694;23.346;2023-07-08T14:50:49;5.57;;;2.75;;
77287;SDS011;66345;42.694;23.346;2023-07-08T14:53:15;4.27;;;2.53;;
77287;SDS011;66345;42.694;23.346;2023-07-08T14:55:42;4.55;;;2.50;;
77287;SDS011;66345;42.694;23.346;2023-07-08T14:58:09;4.05;;;2.47;;
77287;SDS011;66345;42.694;23.346;2023-07-08T15:01:07;6.03;;;3.10;;
77287;SDS011;66345;42.694;23.346;2023-07-08T15:03:37;4.80;;;2.85;;
77287;SDS011;66345;42.694;23.346;2023-07-08T15:06:02;4.87;;;2.87;;
77287;SDS011;66345;42.694;23.346;2023-07-08T15:08:28;5.05;;;2.90;;
77287;SDS011;66345;42.694;23.346;2023-07-08T15:10:53;6.10;;;3.03;;
77287;SDS011;66345;42.694;23.346;2023-07-08T15:13:20;4.93;;;2.85;;
77287;SDS011;66345;42.694;23.346;2023-07-08T15:15:48;6.83;;;3.37;;
77287;SDS011;66345;42.694;23.346;2023-07-08T15:18:15;5.15;;;2.50;;
77287;SDS011;66345;42.694;23.346;2023-07-08T15:20:42;5.77;;;2.67;;
77287;SDS011;66345;42.694;23.346;2023-07-08T15:23:12;5.47;;;2.60;;
77287;SDS011;66345;42.694;23.346;2023-07-08T15:25:38;6.00;;;3.00;;
77287;SDS011;66345;42.694;23.346;2023-07-08T15:28:07;5.68;;;3.00;;
77287;SDS011;66345;42.694;23.346;2023-07-08T15:30:56;8.32;;;3.70;;
77287;SDS011;66345;42.694;23.346;2023-07-08T15:33:23;6.27;;;2.77;;
77287;SDS011;66345;42.694;23.346;2023-07-08T15:35:48;6.38;;;3.05;;
77287;SDS011;66345;42.694;23.346;2023-07-08T15:38:14;7.73;;;3.03;;
77287;SDS011;66345;42.694;23.346;2023-07-08T15:40:39;5.43;;;3.03;;
77287;SDS011;66345;42.694;23.346;2023-07-08T15:43:08;5.10;;;3.10;;
77287;SDS011;66345;42.694;23.346;2023-07-08T15:45:37;7.03;;;2.90;;
77287;SDS011;66345;42.694;23.346;2023-07-08T15:48:03;6.22;;;3.00;;
77287;SDS011;66345;42.694;23.346;2023-07-08T15:50:29;7.83;;;2.97;;